Terminal Aerodrome Forecast
Issued by NWS Cleveland, OH

Home | Current Version | Previous Version | Text Only | Print | Product List | Glossary On
Versions: 1 2 3 4 5 6 7 8 9 10 11 12 13 14 15 16 17 18 19
000
FTUS41 KCLE 231800 AAA
TAFYNG
TAF AMD
KYNG 231832Z 2319/2418 32010KT P6SM SCT008 OVC015
      TEMPO 2319/2322 3SM -RA BR BKN008
     FM232200 34010KT P6SM OVC018
     FM240000 35008KT P6SM BKN030=

USA.gov is the U.S. government's official web portal to all federal, state and local government web resources and services.